sensor_id;sensor_type;location;lat;lon;timestamp;P1;durP1;ratioP1;P2;durP2;ratioP2
45540;SDS011;31265;49.680;8.608;2023-04-24T00:01:40;1.35;;;0.50;;
45540;SDS011;31265;49.680;8.608;2023-04-24T00:04:11;3.63;;;0.60;;
45540;SDS011;31265;49.680;8.608;2023-04-24T00:06:45;0.65;;;0.20;;
45540;SDS011;31265;49.680;8.608;2023-04-24T00:09:16;0.70;;;0.30;;
45540;SDS011;31265;49.680;8.608;2023-04-24T00:14:14;0.73;;;0.30;;
45540;SDS011;31265;49.680;8.608;2023-04-24T00:16:43;1.20;;;0.47;;
45540;SDS011;31265;49.680;8.608;2023-04-24T00:19:12;7.13;;;0.40;;
45540;SDS011;31265;49.680;8.608;2023-04-24T00:21:40;0.85;;;0.43;;
45540;SDS011;31265;49.680;8.608;2023-04-24T00:24:10;0.80;;;0.40;;
45540;SDS011;31265;49.680;8.608;2023-04-24T00:26:38;1.27;;;0.57;;
45540;SDS011;31265;49.680;8.608;2023-04-24T00:29:07;3.33;;;0.80;;
45540;SDS011;31265;49.680;8.608;2023-04-24T00:31:37;1.88;;;0.60;;
45540;SDS011;31265;49.680;8.608;2023-04-24T00:34:05;1.60;;;0.40;;
45540;SDS011;31265;49.680;8.608;2023-04-24T00:36:37;0.60;;;0.35;;
45540;SDS011;31265;49.680;8.608;2023-04-24T00:39:07;0.70;;;0.32;;
45540;SDS011;31265;49.680;8.608;2023-04-24T00:41:36;7.72;;;0.80;;
45540;SDS011;31265;49.680;8.608;2023-04-24T00:44:05;1.77;;;0.45;;
45540;SDS011;31265;49.680;8.608;2023-04-24T00:46:33;1.52;;;0.45;;
45540;SDS011;31265;49.680;8.608;2023-04-24T00:49:04;1.20;;;0.40;;
45540;SDS011;31265;49.680;8.608;2023-04-24T00:51:38;1.40;;;0.52;;
45540;SDS011;31265;49.680;8.608;2023-04-24T00:54:12;0.80;;;0.40;;
45540;SDS011;31265;49.680;8.608;2023-04-24T00:56:44;0.73;;;0.47;;
45540;SDS011;31265;49.680;8.608;2023-04-24T00:59:13;1.17;;;0.30;;
45540;SDS011;31265;49.680;8.608;2023-04-24T01:01:45;0.75;;;0.40;;
45540;SDS011;31265;49.680;8.608;2023-04-24T01:04:13;0.50;;;0.30;;
45540;SDS011;31265;49.680;8.608;2023-04-24T01:06:45;2.05;;;0.47;;
45540;SDS011;31265;49.680;8.608;2023-04-24T01:09:14;0.75;;;0.40;;
45540;SDS011;31265;49.680;8.608;2023-04-24T01:11:47;3.67;;;0.50;;
45540;SDS011;31265;49.680;8.608;2023-04-24T01:14:17;2.38;;;0.60;;
45540;SDS011;31265;49.680;8.608;2023-04-24T01:16:48;0.75;;;0.20;;
45540;SDS011;31265;49.680;8.608;2023-04-24T01:19:20;1.80;;;0.47;;
45540;SDS011;31265;49.680;8.608;2023-04-24T01:21:50;2.28;;;0.60;;
45540;SDS011;31265;49.680;8.608;2023-04-24T01:24:23;1.33;;;0.40;;
45540;SDS011;31265;49.680;8.608;2023-04-24T01:29:20;0.47;;;0.20;;
45540;SDS011;31265;49.680;8.608;2023-04-24T01:31:49;0.73;;;0.40;;
45540;SDS011;31265;49.680;8.608;2023-04-24T01:34:18;1.52;;;0.50;;
45540;SDS011;31265;49.680;8.608;2023-04-24T01:36:46;5.25;;;0.50;;
45540;SDS011;31265;49.680;8.608;2023-04-24T01:39:17;4.53;;;0.47;;
45540;SDS011;31265;49.680;8.608;2023-04-24T01:41:48;4.13;;;0.55;;
45540;SDS011;31265;49.680;8.608;2023-04-24T01:44:18;2.88;;;0.50;;
45540;SDS011;31265;49.680;8.608;2023-04-24T01:46:48;1.60;;;0.30;;
45540;SDS011;31265;49.680;8.608;2023-04-24T01:49:17;2.90;;;0.87;;
45540;SDS011;31265;49.680;8.608;2023-04-24T01:51:45;0.70;;;0.30;;
45540;SDS011;31265;49.680;8.608;2023-04-24T01:54:14;1.88;;;0.40;;
45540;SDS011;31265;49.680;8.608;2023-04-24T01:56:43;0.95;;;0.32;;
45540;SDS011;31265;49.680;8.608;2023-04-24T01:59:13;0.90;;;0.40;;
45540;SDS011;31265;49.680;8.608;2023-04-24T02:01:44;1.92;;;0.45;;
45540;SDS011;31265;49.680;8.608;2023-04-24T02:04:13;1.77;;;0.45;;
45540;SDS011;31265;49.680;8.608;2023-04-24T02:06:42;1.33;;;0.50;;
45540;SDS011;31265;49.680;8.608;2023-04-24T02:09:11;0.88;;;0.32;;
45540;SDS011;31265;49.680;8.608;2023-04-24T02:11:40;1.30;;;0.50;;
45540;SDS011;31265;49.680;8.608;2023-04-24T02:14:08;5.05;;;0.32;;
45540;SDS011;31265;49.680;8.608;2023-04-24T02:16:41;10.80;;;0.70;;
45540;SDS011;31265;49.680;8.608;2023-04-24T02:19:13;2.42;;;0.40;;
45540;SDS011;31265;49.680;8.608;2023-04-24T02:21:41;1.48;;;0.43;;
45540;SDS011;31265;49.680;8.608;2023-04-24T02:24:10;1.85;;;0.43;;
45540;SDS011;31265;49.680;8.608;2023-04-24T02:26:38;1.20;;;0.28;;
45540;SDS011;31265;49.680;8.608;2023-04-24T02:29:07;5.75;;;0.40;;
45540;SDS011;31265;49.680;8.608;2023-04-24T02:31:36;0.90;;;0.45;;
45540;SDS011;31265;49.680;8.608;2023-04-24T02:34:06;0.95;;;0.43;;
45540;SDS011;31265;49.680;8.608;2023-04-24T02:39:02;2.50;;;0.45;;
45540;SDS011;31265;49.680;8.608;2023-04-24T02:41:34;0.98;;;0.50;;
45540;SDS011;31265;49.680;8.608;2023-04-24T02:44:03;2.92;;;0.70;;
45540;SDS011;31265;49.680;8.608;2023-04-24T02:46:32;0.73;;;0.40;;
45540;SDS011;31265;49.680;8.608;2023-04-24T02:49:00;4.63;;;0.63;;
45540;SDS011;31265;49.680;8.608;2023-04-24T02:51:30;1.97;;;0.63;;
45540;SDS011;31265;49.680;8.608;2023-04-24T02:53:58;1.38;;;0.65;;
45540;SDS011;31265;49.680;8.608;2023-04-24T02:56:27;1.20;;;0.80;;
45540;SDS011;31265;49.680;8.608;2023-04-24T02:58:57;1.27;;;0.50;;
45540;SDS011;31265;49.680;8.608;2023-04-24T03:01:25;2.05;;;0.57;;
45540;SDS011;31265;49.680;8.608;2023-04-24T03:03:53;3.05;;;0.52;;
45540;SDS011;31265;49.680;8.608;2023-04-24T03:06:22;1.67;;;0.60;;
45540;SDS011;31265;49.680;8.608;2023-04-24T03:08:55;1.45;;;0.63;;
45540;SDS011;31265;49.680;8.608;2023-04-24T03:11:25;1.60;;;0.55;;
45540;SDS011;31265;49.680;8.608;2023-04-24T03:13:54;2.17;;;1.00;;
45540;SDS011;31265;49.680;8.608;2023-04-24T03:16:23;1.65;;;0.60;;
45540;SDS011;31265;49.680;8.608;2023-04-24T03:18:54;0.95;;;0.43;;
45540;SDS011;31265;49.680;8.608;2023-04-24T03:21:25;0.82;;;0.32;;
45540;SDS011;31265;49.680;8.608;2023-04-24T03:23:56;1.20;;;0.60;;
45540;SDS011;31265;49.680;8.608;2023-04-24T03:26:25;4.30;;;1.05;;
45540;SDS011;31265;49.680;8.608;2023-04-24T03:29:06;3.25;;;0.85;;
45540;SDS011;31265;49.680;8.608;2023-04-24T03:31:35;1.88;;;0.70;;
45540;SDS011;31265;49.680;8.608;2023-04-24T03:36:36;0.50;;;0.30;;
45540;SDS011;31265;49.680;8.608;2023-04-24T03:39:08;1.52;;;0.55;;
45540;SDS011;31265;49.680;8.608;2023-04-24T03:41:44;1.42;;;0.63;;
45540;SDS011;31265;49.680;8.608;2023-04-24T03:44:17;2.53;;;0.85;;
45540;SDS011;31265;49.680;8.608;2023-04-24T03:46:46;4.57;;;0.90;;
45540;SDS011;31265;49.680;8.608;2023-04-24T03:49:14;1.48;;;0.50;;
45540;SDS011;31265;49.680;8.608;2023-04-24T03:51:45;1.85;;;0.55;;
45540;SDS011;31265;49.680;8.608;2023-04-24T03:54:19;2.55;;;0.65;;
45540;SDS011;31265;49.680;8.608;2023-04-24T03:56:50;1.23;;;0.65;;
45540;SDS011;31265;49.680;8.608;2023-04-24T03:59:19;2.45;;;0.82;;
45540;SDS011;31265;49.680;8.608;2023-04-24T04:01:58;1.17;;;0.57;;
45540;SDS011;31265;49.680;8.608;2023-04-24T04:04:28;1.10;;;0.63;;
45540;SDS011;31265;49.680;8.608;2023-04-24T04:06:56;1.35;;;0.57;;
45540;SDS011;31265;49.680;8.608;2023-04-24T04:09:29;1.63;;;0.75;;
45540;SDS011;31265;49.680;8.608;2023-04-24T04:12:02;1.58;;;0.80;;
45540;SDS011;31265;49.680;8.608;2023-04-24T04:14:32;1.55;;;0.70;;
45540;SDS011;31265;49.680;8.608;2023-04-24T04:17:01;2.90;;;0.88;;
45540;SDS011;31265;49.680;8.608;2023-04-24T04:19:32;5.50;;;0.80;;
45540;SDS011;31265;49.680;8.608;2023-04-24T04:22:00;3.38;;;0.90;;
45540;SDS011;31265;49.680;8.608;2023-04-24T04:24:41;3.40;;;0.98;;
45540;SDS011;31265;49.680;8.608;2023-04-24T04:27:11;1.88;;;0.82;;
45540;SDS011;31265;49.680;8.608;2023-04-24T04:29:55;2.08;;;1.35;;
45540;SDS011;31265;49.680;8.608;2023-04-24T04:32:24;2.72;;;0.93;;
45540;SDS011;31265;49.680;8.608;2023-04-24T04:34:54;0.93;;;0.73;;
45540;SDS011;31265;49.680;8.608;2023-04-24T04:37:26;1.98;;;1.00;;
45540;SDS011;31265;49.680;8.608;2023-04-24T04:40:17;1.45;;;0.90;;
45540;SDS011;31265;49.680;8.608;2023-04-24T04:42:51;2.08;;;1.10;;
45540;SDS011;31265;49.680;8.608;2023-04-24T04:45:22;1.23;;;0.68;;
45540;SDS011;31265;49.680;8.608;2023-04-24T04:48:13;1.50;;;0.80;;
45540;SDS011;31265;49.680;8.608;2023-04-24T04:50:48;1.40;;;0.93;;
45540;SDS011;31265;49.680;8.608;2023-04-24T04:53:17;1.70;;;0.70;;
45540;SDS011;31265;49.680;8.608;2023-04-24T04:55:51;1.55;;;0.70;;
45540;SDS011;31265;49.680;8.608;2023-04-24T04:58:27;2.55;;;1.10;;
45540;SDS011;31265;49.680;8.608;2023-04-24T05:00:59;2.63;;;1.25;;
45540;SDS011;31265;49.680;8.608;2023-04-24T05:03:35;2.53;;;1.17;;
45540;SDS011;31265;49.680;8.608;2023-04-24T05:06:08;2.00;;;0.70;;
45540;SDS011;31265;49.680;8.608;2023-04-24T05:08:40;2.80;;;1.25;;
45540;SDS011;31265;49.680;8.608;2023-04-24T05:11:19;2.40;;;1.13;;
45540;SDS011;31265;49.680;8.608;2023-04-24T05:13:48;2.00;;;0.98;;
45540;SDS011;31265;49.680;8.608;2023-04-24T05:16:23;3.08;;;1.40;;
45540;SDS011;31265;49.680;8.608;2023-04-24T05:18:55;2.83;;;1.20;;
45540;SDS011;31265;49.680;8.608;2023-04-24T05:21:29;2.45;;;1.35;;
45540;SDS011;31265;49.680;8.608;2023-04-24T05:26:51;2.42;;;1.30;;
45540;SDS011;31265;49.680;8.608;2023-04-24T05:29:24;2.00;;;1.15;;
45540;SDS011;31265;49.680;8.608;2023-04-24T05:31:55;3.30;;;1.30;;
45540;SDS011;31265;49.680;8.608;2023-04-24T05:36:56;2.78;;;1.00;;
45540;SDS011;31265;49.680;8.608;2023-04-24T05:39:25;2.58;;;1.35;;
45540;SDS011;31265;49.680;8.608;2023-04-24T05:41:57;2.78;;;1.35;;
45540;SDS011;31265;49.680;8.608;2023-04-24T05:44:28;2.85;;;1.35;;
45540;SDS011;31265;49.680;8.608;2023-04-24T05:47:01;2.42;;;1.23;;
45540;SDS011;31265;49.680;8.608;2023-04-24T05:49:29;2.50;;;1.15;;
45540;SDS011;31265;49.680;8.608;2023-04-24T05:51:58;2.15;;;1.25;;
45540;SDS011;31265;49.680;8.608;2023-04-24T05:54:26;2.38;;;1.25;;
45540;SDS011;31265;49.680;8.608;2023-04-24T05:56:59;4.50;;;1.55;;
45540;SDS011;31265;49.680;8.608;2023-04-24T05:59:43;2.83;;;1.40;;
45540;SDS011;31265;49.680;8.608;2023-04-24T06:02:17;5.60;;;1.73;;
45540;SDS011;31265;49.680;8.608;2023-04-24T06:04:47;2.80;;;1.40;;
45540;SDS011;31265;49.680;8.608;2023-04-24T06:07:17;3.17;;;1.70;;
45540;SDS011;31265;49.680;8.608;2023-04-24T06:09:46;4.60;;;1.83;;
45540;SDS011;31265;49.680;8.608;2023-04-24T06:12:17;3.10;;;1.85;;
45540;SDS011;31265;49.680;8.608;2023-04-24T06:14:54;3.60;;;1.95;;
45540;SDS011;31265;49.680;8.608;2023-04-24T06:17:34;3.33;;;1.77;;
45540;SDS011;31265;49.680;8.608;2023-04-24T06:20:04;5.90;;;1.67;;
45540;SDS011;31265;49.680;8.608;2023-04-24T06:22:34;3.15;;;1.50;;
45540;SDS011;31265;49.680;8.608;2023-04-24T06:25:03;3.78;;;1.85;;
45540;SDS011;31265;49.680;8.608;2023-04-24T06:27:33;11.60;;;1.60;;
45540;SDS011;31265;49.680;8.608;2023-04-24T06:30:02;2.90;;;1.70;;
45540;SDS011;31265;49.680;8.608;2023-04-24T06:32:35;3.33;;;1.85;;
45540;SDS011;31265;49.680;8.608;2023-04-24T06:35:04;3.60;;;1.67;;
45540;SDS011;31265;49.680;8.608;2023-04-24T06:37:34;3.40;;;1.60;;
45540;SDS011;31265;49.680;8.608;2023-04-24T06:40:04;2.33;;;1.40;;
45540;SDS011;31265;49.680;8.608;2023-04-24T06:42:36;7.00;;;2.20;;
45540;SDS011;31265;49.680;8.608;2023-04-24T06:45:07;4.32;;;1.73;;
45540;SDS011;31265;49.680;8.608;2023-04-24T06:47:36;3.33;;;1.65;;
45540;SDS011;31265;49.680;8.608;2023-04-24T06:50:06;3.67;;;2.05;;
45540;SDS011;31265;49.680;8.608;2023-04-24T06:52:35;5.97;;;2.40;;
45540;SDS011;31265;49.680;8.608;2023-04-24T06:55:04;3.40;;;1.90;;
45540;SDS011;31265;49.680;8.608;2023-04-24T06:57:37;3.38;;;1.45;;
45540;SDS011;31265;49.680;8.608;2023-04-24T07:02:36;6.45;;;3.55;;
45540;SDS011;31265;49.680;8.608;2023-04-24T07:05:07;3.33;;;1.15;;
45540;SDS011;31265;49.680;8.608;2023-04-24T07:07:36;1.88;;;0.80;;
45540;SDS011;31265;49.680;8.608;2023-04-24T07:10:07;2.30;;;1.08;;
45540;SDS011;31265;49.680;8.608;2023-04-24T07:12:38;4.72;;;1.45;;
45540;SDS011;31265;49.680;8.608;2023-04-24T07:17:38;2.05;;;1.02;;
45540;SDS011;31265;49.680;8.608;2023-04-24T07:20:10;2.83;;;1.35;;
45540;SDS011;31265;49.680;8.608;2023-04-24T07:22:41;1.95;;;0.90;;
45540;SDS011;31265;49.680;8.608;2023-04-24T07:25:09;3.05;;;1.25;;
45540;SDS011;31265;49.680;8.608;2023-04-24T07:27:39;1.75;;;0.95;;
45540;SDS011;31265;49.680;8.608;2023-04-24T07:32:36;5.50;;;0.90;;
45540;SDS011;31265;49.680;8.608;2023-04-24T07:35:04;1.98;;;0.93;;
45540;SDS011;31265;49.680;8.608;2023-04-24T07:37:34;3.97;;;0.88;;
45540;SDS011;31265;49.680;8.608;2023-04-24T07:40:02;3.20;;;1.20;;
45540;SDS011;31265;49.680;8.608;2023-04-24T07:42:31;6.53;;;1.42;;
45540;SDS011;31265;49.680;8.608;2023-04-24T07:45:03;5.13;;;1.23;;
45540;SDS011;31265;49.680;8.608;2023-04-24T07:47:35;1.92;;;1.13;;
45540;SDS011;31265;49.680;8.608;2023-04-24T07:50:05;2.35;;;0.90;;
45540;SDS011;31265;49.680;8.608;2023-04-24T07:52:37;1.75;;;0.85;;
45540;SDS011;31265;49.680;8.608;2023-04-24T07:55:05;4.97;;;0.82;;
45540;SDS011;31265;49.680;8.608;2023-04-24T07:57:35;2.30;;;1.10;;
45540;SDS011;31265;49.680;8.608;2023-04-24T08:00:08;2.30;;;0.70;;
45540;SDS011;31265;49.680;8.608;2023-04-24T08:02:37;2.88;;;0.80;;
45540;SDS011;31265;49.680;8.608;2023-04-24T08:05:06;1.17;;;0.60;;
45540;SDS011;31265;49.680;8.608;2023-04-24T08:07:36;1.98;;;0.60;;
45540;SDS011;31265;49.680;8.608;2023-04-24T08:12:35;0.80;;;0.50;;
45540;SDS011;31265;49.680;8.608;2023-04-24T08:15:05;1.08;;;0.60;;
45540;SDS011;31265;49.680;8.608;2023-04-24T08:17:36;2.90;;;0.82;;
45540;SDS011;31265;49.680;8.608;2023-04-24T08:20:08;1.73;;;0.70;;
45540;SDS011;31265;49.680;8.608;2023-04-24T08:22:40;1.70;;;0.80;;
45540;SDS011;31265;49.680;8.608;2023-04-24T08:25:09;1.48;;;0.70;;
45540;SDS011;31265;49.680;8.608;2023-04-24T08:27:39;2.22;;;0.93;;
45540;SDS011;31265;49.680;8.608;2023-04-24T08:30:12;4.70;;;0.80;;
45540;SDS011;31265;49.680;8.608;2023-04-24T08:32:41;1.15;;;0.65;;
45540;SDS011;31265;49.680;8.608;2023-04-24T08:35:11;2.30;;;0.93;;
45540;SDS011;31265;49.680;8.608;2023-04-24T08:37:41;2.17;;;0.93;;
45540;SDS011;31265;49.680;8.608;2023-04-24T08:40:12;1.58;;;0.80;;
45540;SDS011;31265;49.680;8.608;2023-04-24T08:42:42;2.08;;;0.85;;
45540;SDS011;31265;49.680;8.608;2023-04-24T08:45:12;1.48;;;0.77;;
45540;SDS011;31265;49.680;8.608;2023-04-24T08:47:42;1.60;;;0.90;;
45540;SDS011;31265;49.680;8.608;2023-04-24T08:50:12;2.63;;;1.00;;
45540;SDS011;31265;49.680;8.608;2023-04-24T08:52:45;4.15;;;1.42;;
45540;SDS011;31265;49.680;8.608;2023-04-24T08:55:17;1.00;;;0.60;;
45540;SDS011;31265;49.680;8.608;2023-04-24T08:57:49;2.22;;;0.98;;
45540;SDS011;31265;49.680;8.608;2023-04-24T09:00:22;1.95;;;1.02;;
45540;SDS011;31265;49.680;8.608;2023-04-24T09:02:54;1.90;;;0.90;;
45540;SDS011;31265;49.680;8.608;2023-04-24T09:05:23;1.83;;;0.93;;
45540;SDS011;31265;49.680;8.608;2023-04-24T09:07:54;2.05;;;0.98;;
45540;SDS011;31265;49.680;8.608;2023-04-24T09:12:54;2.00;;;1.00;;
45540;SDS011;31265;49.680;8.608;2023-04-24T09:15:30;4.32;;;0.90;;
45540;SDS011;31265;49.680;8.608;2023-04-24T09:17:58;2.55;;;0.98;;
45540;SDS011;31265;49.680;8.608;2023-04-24T09:20:27;2.47;;;1.33;;
45540;SDS011;31265;49.680;8.608;2023-04-24T09:22:57;1.70;;;0.98;;
45540;SDS011;31265;49.680;8.608;2023-04-24T09:25:31;1.65;;;0.80;;
45540;SDS011;31265;49.680;8.608;2023-04-24T09:28:00;2.03;;;1.17;;
45540;SDS011;31265;49.680;8.608;2023-04-24T09:30:30;1.38;;;0.85;;
45540;SDS011;31265;49.680;8.608;2023-04-24T09:33:12;2.17;;;1.10;;
45540;SDS011;31265;49.680;8.608;2023-04-24T09:35:42;3.97;;;1.40;;
45540;SDS011;31265;49.680;8.608;2023-04-24T09:38:24;2.13;;;1.00;;
45540;SDS011;31265;49.680;8.608;2023-04-24T09:40:59;2.05;;;1.00;;
45540;SDS011;31265;49.680;8.608;2023-04-24T09:43:31;1.73;;;0.88;;
45540;SDS011;31265;49.680;8.608;2023-04-24T09:46:03;1.77;;;0.80;;
45540;SDS011;31265;49.680;8.608;2023-04-24T09:48:33;3.42;;;0.85;;
45540;SDS011;31265;49.680;8.608;2023-04-24T09:51:06;1.65;;;0.80;;
45540;SDS011;31265;49.680;8.608;2023-04-24T09:53:37;1.45;;;0.80;;
45540;SDS011;31265;49.680;8.608;2023-04-24T09:56:11;1.48;;;0.88;;
45540;SDS011;31265;49.680;8.608;2023-04-24T09:58:40;2.00;;;0.90;;
45540;SDS011;31265;49.680;8.608;2023-04-24T10:01:11;3.45;;;1.02;;
45540;SDS011;31265;49.680;8.608;2023-04-24T10:03:41;2.67;;;0.70;;
45540;SDS011;31265;49.680;8.608;2023-04-24T10:06:11;3.40;;;0.90;;
45540;SDS011;31265;49.680;8.608;2023-04-24T10:08:42;3.67;;;0.98;;
45540;SDS011;31265;49.680;8.608;2023-04-24T10:11:13;2.63;;;0.80;;
45540;SDS011;31265;49.680;8.608;2023-04-24T10:13:41;2.28;;;0.82;;
45540;SDS011;31265;49.680;8.608;2023-04-24T10:16:12;1.63;;;0.90;;
45540;SDS011;31265;49.680;8.608;2023-04-24T10:18:42;2.10;;;0.80;;
45540;SDS011;31265;49.680;8.608;2023-04-24T10:21:12;2.55;;;0.95;;
45540;SDS011;31265;49.680;8.608;2023-04-24T10:23:42;0.73;;;0.35;;
45540;SDS011;31265;49.680;8.608;2023-04-24T10:26:13;1.45;;;0.75;;
45540;SDS011;31265;49.680;8.608;2023-04-24T10:28:45;1.10;;;0.50;;
45540;SDS011;31265;49.680;8.608;2023-04-24T10:31:17;1.23;;;0.68;;
45540;SDS011;31265;49.680;8.608;2023-04-24T10:33:45;1.67;;;0.85;;
45540;SDS011;31265;49.680;8.608;2023-04-24T10:36:14;3.97;;;1.02;;
45540;SDS011;31265;49.680;8.608;2023-04-24T10:38:45;1.05;;;0.60;;
45540;SDS011;31265;49.680;8.608;2023-04-24T10:41:16;1.35;;;0.55;;
45540;SDS011;31265;49.680;8.608;2023-04-24T10:44:03;1.45;;;0.75;;
45540;SDS011;31265;49.680;8.608;2023-04-24T10:46:34;4.20;;;1.00;;
45540;SDS011;31265;49.680;8.608;2023-04-24T10:49:06;3.13;;;0.70;;
45540;SDS011;31265;49.680;8.608;2023-04-24T10:51:45;1.33;;;0.65;;
45540;SDS011;31265;49.680;8.608;2023-04-24T10:54:26;1.45;;;0.70;;
45540;SDS011;31265;49.680;8.608;2023-04-24T11:00:15;1.23;;;0.70;;
45540;SDS011;31265;49.680;8.608;2023-04-24T11:02:48;1.80;;;0.90;;
45540;SDS011;31265;49.680;8.608;2023-04-24T11:05:20;2.30;;;1.00;;
45540;SDS011;31265;49.680;8.608;2023-04-24T11:10:39;3.00;;;1.10;;
45540;SDS011;31265;49.680;8.608;2023-04-24T11:13:08;2.40;;;1.02;;
45540;SDS011;31265;49.680;8.608;2023-04-24T11:15:41;3.40;;;0.80;;
45540;SDS011;31265;49.680;8.608;2023-04-24T11:18:14;3.85;;;0.88;;
45540;SDS011;31265;49.680;8.608;2023-04-24T11:20:43;1.73;;;0.73;;
45540;SDS011;31265;49.680;8.608;2023-04-24T11:23:12;2.65;;;1.15;;
45540;SDS011;31265;49.680;8.608;2023-04-24T11:25:41;4.07;;;1.00;;
45540;SDS011;31265;49.680;8.608;2023-04-24T11:28:14;1.77;;;0.80;;
45540;SDS011;31265;49.680;8.608;2023-04-24T11:30:44;2.13;;;1.10;;
45540;SDS011;31265;49.680;8.608;2023-04-24T11:33:13;4.72;;;1.17;;
45540;SDS011;31265;49.680;8.608;2023-04-24T11:35:48;4.85;;;1.20;;
45540;SDS011;31265;49.680;8.608;2023-04-24T11:38:20;1.17;;;0.73;;
45540;SDS011;31265;49.680;8.608;2023-04-24T11:40:53;3.22;;;0.93;;
45540;SDS011;31265;49.680;8.608;2023-04-24T11:43:23;4.75;;;1.20;;
45540;SDS011;31265;49.680;8.608;2023-04-24T11:45:54;3.10;;;0.90;;
45540;SDS011;31265;49.680;8.608;2023-04-24T11:48:25;2.08;;;0.85;;
45540;SDS011;31265;49.680;8.608;2023-04-24T11:50:54;1.48;;;0.70;;
45540;SDS011;31265;49.680;8.608;2023-04-24T11:53:24;2.83;;;1.13;;
45540;SDS011;31265;49.680;8.608;2023-04-24T11:55:53;5.32;;;1.02;;
45540;SDS011;31265;49.680;8.608;2023-04-24T11:58:24;2.58;;;1.33;;
45540;SDS011;31265;49.680;8.608;2023-04-24T12:00:57;2.22;;;1.00;;
45540;SDS011;31265;49.680;8.608;2023-04-24T12:03:30;3.85;;;0.95;;
45540;SDS011;31265;49.680;8.608;2023-04-24T12:06:09;2.13;;;1.13;;
45540;SDS011;31265;49.680;8.608;2023-04-24T12:08:39;2.40;;;0.95;;
45540;SDS011;31265;49.680;8.608;2023-04-24T12:11:07;2.00;;;0.88;;
45540;SDS011;31265;49.680;8.608;2023-04-24T12:13:36;2.63;;;1.10;;
45540;SDS011;31265;49.680;8.608;2023-04-24T12:16:04;1.85;;;0.98;;
45540;SDS011;31265;49.680;8.608;2023-04-24T12:18:42;5.53;;;1.33;;
45540;SDS011;31265;49.680;8.608;2023-04-24T12:21:16;4.00;;;1.50;;
45540;SDS011;31265;49.680;8.608;2023-04-24T12:23:49;2.33;;;1.00;;
45540;SDS011;31265;49.680;8.608;2023-04-24T12:26:18;4.25;;;1.10;;
45540;SDS011;31265;49.680;8.608;2023-04-24T12:28:49;2.10;;;0.90;;
45540;SDS011;31265;49.680;8.608;2023-04-24T12:31:20;4.03;;;1.42;;
45540;SDS011;31265;49.680;8.608;2023-04-24T12:33:50;3.03;;;0.88;;
45540;SDS011;31265;49.680;8.608;2023-04-24T12:36:20;2.63;;;1.20;;
45540;SDS011;31265;49.680;8.608;2023-04-24T12:38:52;2.42;;;1.23;;
45540;SDS011;31265;49.680;8.608;2023-04-24T12:41:20;5.78;;;1.38;;
45540;SDS011;31265;49.680;8.608;2023-04-24T12:43:50;3.40;;;1.20;;
45540;SDS011;31265;49.680;8.608;2023-04-24T12:46:21;3.35;;;1.25;;
45540;SDS011;31265;49.680;8.608;2023-04-24T12:48:51;1.50;;;0.80;;
45540;SDS011;31265;49.680;8.608;2023-04-24T12:51:20;2.47;;;1.13;;
45540;SDS011;31265;49.680;8.608;2023-04-24T12:53:48;2.50;;;1.27;;
45540;SDS011;31265;49.680;8.608;2023-04-24T12:56:17;2.28;;;1.10;;
45540;SDS011;31265;49.680;8.608;2023-04-24T12:58:46;3.85;;;1.23;;
45540;SDS011;31265;49.680;8.608;2023-04-24T13:01:14;3.00;;;1.00;;
45540;SDS011;31265;49.680;8.608;2023-04-24T13:03:43;2.67;;;1.33;;
45540;SDS011;31265;49.680;8.608;2023-04-24T13:06:15;2.15;;;1.15;;
45540;SDS011;31265;49.680;8.608;2023-04-24T13:08:45;2.60;;;1.30;;
45540;SDS011;31265;49.680;8.608;2023-04-24T13:11:18;1.52;;;1.05;;
45540;SDS011;31265;49.680;8.608;2023-04-24T13:13:54;2.90;;;1.23;;
45540;SDS011;31265;49.680;8.608;2023-04-24T13:16:26;3.22;;;1.63;;
45540;SDS011;31265;49.680;8.608;2023-04-24T13:18:56;1.77;;;0.98;;
45540;SDS011;31265;49.680;8.608;2023-04-24T13:21:26;3.67;;;1.27;;
45540;SDS011;31265;49.680;8.608;2023-04-24T13:23:54;2.55;;;0.82;;
45540;SDS011;31265;49.680;8.608;2023-04-24T13:26:25;2.75;;;1.17;;
45540;SDS011;31265;49.680;8.608;2023-04-24T13:28:55;3.13;;;1.02;;
45540;SDS011;31265;49.680;8.608;2023-04-24T13:31:26;2.10;;;0.80;;
45540;SDS011;31265;49.680;8.608;2023-04-24T13:33:55;1.27;;;0.75;;
45540;SDS011;31265;49.680;8.608;2023-04-24T13:36:26;2.15;;;1.00;;
45540;SDS011;31265;49.680;8.608;2023-04-24T13:38:55;2.15;;;1.30;;
45540;SDS011;31265;49.680;8.608;2023-04-24T13:41:24;3.00;;;1.33;;
45540;SDS011;31265;49.680;8.608;2023-04-24T13:43:52;6.50;;;1.85;;
45540;SDS011;31265;49.680;8.608;2023-04-24T13:46:21;2.13;;;1.10;;
45540;SDS011;31265;49.680;8.608;2023-04-24T13:48:52;2.67;;;1.00;;
45540;SDS011;31265;49.680;8.608;2023-04-24T13:51:20;1.83;;;0.95;;
45540;SDS011;31265;49.680;8.608;2023-04-24T13:53:50;2.38;;;0.90;;
45540;SDS011;31265;49.680;8.608;2023-04-24T13:56:18;3.92;;;1.08;;
45540;SDS011;31265;49.680;8.608;2023-04-24T13:58:47;7.40;;;1.83;;
45540;SDS011;31265;49.680;8.608;2023-04-24T14:01:17;5.78;;;1.50;;
45540;SDS011;31265;49.680;8.608;2023-04-24T14:06:16;2.10;;;0.98;;
45540;SDS011;31265;49.680;8.608;2023-04-24T14:08:45;3.92;;;1.13;;
45540;SDS011;31265;49.680;8.608;2023-04-24T14:11:14;1.63;;;0.88;;
45540;SDS011;31265;49.680;8.608;2023-04-24T14:13:46;7.45;;;1.30;;
45540;SDS011;31265;49.680;8.608;2023-04-24T14:16:15;2.80;;;1.08;;
45540;SDS011;31265;49.680;8.608;2023-04-24T14:18:47;2.35;;;0.77;;
45540;SDS011;31265;49.680;8.608;2023-04-24T14:21:17;1.60;;;0.80;;
45540;SDS011;31265;49.680;8.608;2023-04-24T14:23:47;2.97;;;0.88;;
45540;SDS011;31265;49.680;8.608;2023-04-24T14:26:17;5.60;;;0.98;;
45540;SDS011;31265;49.680;8.608;2023-04-24T14:28:48;1.45;;;0.65;;
45540;SDS011;31265;49.680;8.608;2023-04-24T14:31:24;2.13;;;0.98;;
45540;SDS011;31265;49.680;8.608;2023-04-24T14:33:52;3.38;;;1.13;;
45540;SDS011;31265;49.680;8.608;2023-04-24T14:36:21;1.75;;;0.60;;
45540;SDS011;31265;49.680;8.608;2023-04-24T14:38:52;4.38;;;0.90;;
45540;SDS011;31265;49.680;8.608;2023-04-24T14:41:22;4.03;;;0.90;;
45540;SDS011;31265;49.680;8.608;2023-04-24T14:46:19;1.38;;;0.70;;
45540;SDS011;31265;49.680;8.608;2023-04-24T14:48:48;2.27;;;0.97;;
45540;SDS011;31265;49.680;8.608;2023-04-24T14:51:16;2.38;;;1.27;;
45540;SDS011;31265;49.680;8.608;2023-04-24T14:53:45;5.45;;;1.42;;
45540;SDS011;31265;49.680;8.608;2023-04-24T14:56:14;2.53;;;1.00;;
45540;SDS011;31265;49.680;8.608;2023-04-24T14:58:45;4.77;;;1.37;;
45540;SDS011;31265;49.680;8.608;2023-04-24T15:01:13;1.63;;;0.98;;
45540;SDS011;31265;49.680;8.608;2023-04-24T15:03:44;3.47;;;1.45;;
45540;SDS011;31265;49.680;8.608;2023-04-24T15:06:14;3.88;;;1.17;;
45540;SDS011;31265;49.680;8.608;2023-04-24T15:08:42;2.50;;;1.00;;
45540;SDS011;31265;49.680;8.608;2023-04-24T15:11:16;3.00;;;0.90;;
45540;SDS011;31265;49.680;8.608;2023-04-24T15:13:46;3.20;;;1.63;;
45540;SDS011;31265;49.680;8.608;2023-04-24T15:16:16;3.53;;;1.17;;
45540;SDS011;31265;49.680;8.608;2023-04-24T15:18:44;2.17;;;0.98;;
45540;SDS011;31265;49.680;8.608;2023-04-24T15:21:12;1.50;;;0.65;;
45540;SDS011;31265;49.680;8.608;2023-04-24T15:23:44;3.40;;;1.20;;
45540;SDS011;31265;49.680;8.608;2023-04-24T15:26:13;2.35;;;1.17;;
45540;SDS011;31265;49.680;8.608;2023-04-24T15:28:42;5.80;;;1.55;;
45540;SDS011;31265;49.680;8.608;2023-04-24T15:31:14;2.90;;;1.10;;
45540;SDS011;31265;49.680;8.608;2023-04-24T15:33:43;1.85;;;0.95;;
45540;SDS011;31265;49.680;8.608;2023-04-24T15:36:12;6.72;;;1.23;;
45540;SDS011;31265;49.680;8.608;2023-04-24T15:38:41;4.13;;;1.00;;
45540;SDS011;31265;49.680;8.608;2023-04-24T15:41:11;2.08;;;0.60;;
45540;SDS011;31265;49.680;8.608;2023-04-24T15:43:40;2.42;;;1.00;;
45540;SDS011;31265;49.680;8.608;2023-04-24T15:46:09;4.68;;;1.05;;
45540;SDS011;31265;49.680;8.608;2023-04-24T15:48:40;2.90;;;1.00;;